sensor_id;sensor_type;location;lat;lon;timestamp;pressure;altitude;pressure_sealevel;temperature;humidity
32197;BME280;18697;42.770;23.400;2023-04-05T00:00:53;95176.81;;;1.90;84.11
32197;BME280;18697;42.770;23.400;2023-04-05T00:03:19;95178.00;;;1.89;84.03
32197;BME280;18697;42.770;23.400;2023-04-05T00:05:45;95177.72;;;1.84;83.93
32197;BME280;18697;42.770;23.400;2023-04-05T00:08:10;95167.09;;;1.86;84.31
32197;BME280;18697;42.770;23.400;2023-04-05T00:10:48;95168.25;;;1.88;84.13
32197;BME280;18697;42.770;23.400;2023-04-05T00:13:14;95164.31;;;1.89;84.00
32197;BME280;18697;42.770;23.400;2023-04-05T00:15:39;95153.47;;;1.82;84.20
32197;BME280;18697;42.770;23.400;2023-04-05T00:18:05;95161.16;;;1.91;84.12
32197;BME280;18697;42.770;23.400;2023-04-05T00:20:34;95164.59;;;1.95;84.25
32197;BME280;18697;42.770;23.400;2023-04-05T00:23:01;95158.28;;;1.98;83.83
32197;BME280;18697;42.770;23.400;2023-04-05T00:25:26;95157.56;;;1.94;83.56
32197;BME280;18697;42.770;23.400;2023-04-05T00:27:52;95169.72;;;1.93;83.59
32197;BME280;18697;42.770;23.400;2023-04-05T00:30:17;95167.41;;;1.91;83.95
32197;BME280;18697;42.770;23.400;2023-04-05T00:32:48;95164.59;;;1.95;84.12
32197;BME280;18697;42.770;23.400;2023-04-05T00:35:15;95164.25;;;1.93;84.09
32197;BME280;18697;42.770;23.400;2023-04-05T00:37:40;95158.78;;;1.93;84.44
32197;BME280;18697;42.770;23.400;2023-04-05T00:40:06;95164.25;;;1.93;84.01
32197;BME280;18697;42.770;23.400;2023-04-05T00:42:32;95168.13;;;1.95;83.95
32197;BME280;18697;42.770;23.400;2023-04-05T00:44:57;95161.94;;;1.91;84.04
32197;BME280;18697;42.770;23.400;2023-04-05T00:47:23;95165.09;;;1.90;83.93
32197;BME280;18697;42.770;23.400;2023-04-05T00:49:48;95168.41;;;2.01;83.87
32197;BME280;18697;42.770;23.400;2023-04-05T00:52:14;95172.47;;;1.93;83.50
32197;BME280;18697;42.770;23.400;2023-04-05T00:54:40;95164.19;;;1.96;83.66
32197;BME280;18697;42.770;23.400;2023-04-05T00:57:07;95167.16;;;2.06;83.85
32197;BME280;18697;42.770;23.400;2023-04-05T00:59:33;95171.38;;;2.10;83.77
32197;BME280;18697;42.770;23.400;2023-04-05T01:02:11;95170.09;;;2.15;83.40
32197;BME280;18697;42.770;23.400;2023-04-05T01:04:43;95175.16;;;2.16;83.38
32197;BME280;18697;42.770;23.400;2023-04-05T01:07:37;95176.91;;;2.07;83.46
32197;BME280;18697;42.770;23.400;2023-04-05T01:10:09;95166.78;;;2.04;83.44
32197;BME280;18697;42.770;23.400;2023-04-05T01:12:36;95175.06;;;2.00;83.36
32197;BME280;18697;42.770;23.400;2023-04-05T01:15:02;95173.53;;;1.99;83.86
32197;BME280;18697;42.770;23.400;2023-04-05T01:17:29;95171.97;;;1.98;83.98
32197;BME280;18697;42.770;23.400;2023-04-05T01:20:02;95173.28;;;1.90;84.50
32197;BME280;18697;42.770;23.400;2023-04-05T01:25:32;95180.56;;;1.77;84.67
32197;BME280;18697;42.770;23.400;2023-04-05T01:28:11;95193.38;;;1.83;84.97
32197;BME280;18697;42.770;23.400;2023-04-05T01:30:43;95193.06;;;1.78;84.65
32197;BME280;18697;42.770;23.400;2023-04-05T01:33:34;95192.22;;;1.81;84.81
32197;BME280;18697;42.770;23.400;2023-04-05T01:36:16;95189.56;;;1.77;84.51
32197;BME280;18697;42.770;23.400;2023-04-05T01:38:48;95200.38;;;1.84;84.80
32197;BME280;18697;42.770;23.400;2023-04-05T01:41:13;95192.94;;;1.85;84.94
32197;BME280;18697;42.770;23.400;2023-04-05T01:43:39;95196.88;;;1.84;84.40
32197;BME280;18697;42.770;23.400;2023-04-05T01:46:04;95192.53;;;1.86;84.37
32197;BME280;18697;42.770;23.400;2023-04-05T01:48:30;95190.22;;;1.85;84.26
32197;BME280;18697;42.770;23.400;2023-04-05T01:50:55;95191.03;;;1.82;84.44
32197;BME280;18697;42.770;23.400;2023-04-05T01:53:21;95200.75;;;1.86;84.36
32197;BME280;18697;42.770;23.400;2023-04-05T01:55:46;95196.03;;;1.87;84.33
32197;BME280;18697;42.770;23.400;2023-04-05T01:58:12;95182.78;;;1.85;84.09
32197;BME280;18697;42.770;23.400;2023-04-05T02:00:37;95199.50;;;1.91;83.93
32197;BME280;18697;42.770;23.400;2023-04-05T02:03:02;95198.78;;;1.87;84.15
32197;BME280;18697;42.770;23.400;2023-04-05T02:05:28;95196.47;;;1.85;84.18
32197;BME280;18697;42.770;23.400;2023-04-05T02:07:53;95192.47;;;1.90;84.33
32197;BME280;18697;42.770;23.400;2023-04-05T02:10:22;95198.38;;;1.88;84.41
32197;BME280;18697;42.770;23.400;2023-04-05T02:12:47;95199.13;;;1.89;84.28
32197;BME280;18697;42.770;23.400;2023-04-05T02:15:12;95201.47;;;1.90;84.24
32197;BME280;18697;42.770;23.400;2023-04-05T02:17:38;95199.13;;;1.89;84.30
32197;BME280;18697;42.770;23.400;2023-04-05T02:20:10;95210.03;;;1.92;84.31
32197;BME280;18697;42.770;23.400;2023-04-05T02:22:36;95196.28;;;1.96;84.27
32197;BME280;18697;42.770;23.400;2023-04-05T02:25:05;95203.66;;;1.99;83.61
32197;BME280;18697;42.770;23.400;2023-04-05T02:27:33;95199.44;;;1.94;83.31
32197;BME280;18697;42.770;23.400;2023-04-05T02:29:58;95201.16;;;1.85;83.75
32197;BME280;18697;42.770;23.400;2023-04-05T02:32:24;95206.63;;;1.85;83.92
32197;BME280;18697;42.770;23.400;2023-04-05T02:34:49;95201.88;;;1.89;83.67
32197;BME280;18697;42.770;23.400;2023-04-05T02:37:17;95197.88;;;1.93;83.82
32197;BME280;18697;42.770;23.400;2023-04-05T02:39:42;95200.22;;;1.95;83.73
32197;BME280;18697;42.770;23.400;2023-04-05T02:42:08;95198.66;;;1.94;83.66
32197;BME280;18697;42.770;23.400;2023-04-05T02:44:33;95196.81;;;1.87;83.75
32197;BME280;18697;42.770;23.400;2023-04-05T02:46:58;95198.38;;;1.88;83.75
32197;BME280;18697;42.770;23.400;2023-04-05T02:49:24;95196.03;;;1.87;83.49
32197;BME280;18697;42.770;23.400;2023-04-05T02:51:49;95198.53;;;1.78;83.72
32197;BME280;18697;42.770;23.400;2023-04-05T02:54:15;95191.88;;;1.79;83.79
32197;BME280;18697;42.770;23.400;2023-04-05T02:56:40;95193.47;;;1.76;84.00
32197;BME280;18697;42.770;23.400;2023-04-05T02:59:06;95201.22;;;1.81;84.23
32197;BME280;18697;42.770;23.400;2023-04-05T03:01:32;95195.81;;;1.78;84.15
32197;BME280;18697;42.770;23.400;2023-04-05T03:04:00;95194.97;;;1.81;84.30
32197;BME280;18697;42.770;23.400;2023-04-05T03:06:29;95195.69;;;1.85;84.34
32197;BME280;18697;42.770;23.400;2023-04-05T03:08:56;95197.28;;;1.82;84.26
32197;BME280;18697;42.770;23.400;2023-04-05T03:11:21;95193.47;;;1.76;84.19
32197;BME280;18697;42.770;23.400;2023-04-05T03:13:47;95194.69;;;1.75;84.33
32197;BME280;18697;42.770;23.400;2023-04-05T03:16:12;95196.28;;;1.73;84.21
32197;BME280;18697;42.770;23.400;2023-04-05T03:18:38;95206.03;;;1.74;84.41
32197;BME280;18697;42.770;23.400;2023-04-05T03:21:03;95196.63;;;1.75;84.39
32197;BME280;18697;42.770;23.400;2023-04-05T03:23:30;95193.47;;;1.76;84.58
32197;BME280;18697;42.770;23.400;2023-04-05T03:26:01;95194.03;;;1.68;84.64
32197;BME280;18697;42.770;23.400;2023-04-05T03:28:28;95203.59;;;1.79;84.59
32197;BME280;18697;42.770;23.400;2023-04-05T03:30:53;95198.19;;;1.76;84.51
32197;BME280;18697;42.770;23.400;2023-04-05T03:33:19;95217.41;;;1.72;84.55
32197;BME280;18697;42.770;23.400;2023-04-05T03:35:46;95202.84;;;1.79;84.72
32197;BME280;18697;42.770;23.400;2023-04-05T03:38:11;95208.44;;;1.72;84.68
32197;BME280;18697;42.770;23.400;2023-04-05T03:40:37;95199.09;;;1.69;84.55
32197;BME280;18697;42.770;23.400;2023-04-05T03:43:02;95203.78;;;1.69;84.28
32197;BME280;18697;42.770;23.400;2023-04-05T03:45:28;95206.41;;;1.76;84.52
32197;BME280;18697;42.770;23.400;2023-04-05T03:47:57;95212.22;;;1.78;84.52
32197;BME280;18697;42.770;23.400;2023-04-05T03:50:23;95216.22;;;1.73;84.35
32197;BME280;18697;42.770;23.400;2023-04-05T03:52:48;95208.31;;;1.79;84.28
32197;BME280;18697;42.770;23.400;2023-04-05T03:55:13;95213.00;;;1.78;84.18
32197;BME280;18697;42.770;23.400;2023-04-05T03:57:41;95220.81;;;1.80;83.84
32197;BME280;18697;42.770;23.400;2023-04-05T04:00:07;95216.53;;;1.79;84.09
32197;BME280;18697;42.770;23.400;2023-04-05T04:02:43;95223.97;;;1.78;84.22
32197;BME280;18697;42.770;23.400;2023-04-05T04:05:10;95235.44;;;1.70;84.01
32197;BME280;18697;42.770;23.400;2023-04-05T04:07:36;95233.91;;;1.69;83.83
32197;BME280;18697;42.770;23.400;2023-04-05T04:10:05;95227.59;;;1.72;84.06
32197;BME280;18697;42.770;23.400;2023-04-05T04:12:31;95229.50;;;1.75;84.07
32197;BME280;18697;42.770;23.400;2023-04-05T04:14:56;95220.22;;;1.69;83.55
32197;BME280;18697;42.770;23.400;2023-04-05T04:17:29;95234.19;;;1.74;83.90
32197;BME280;18697;42.770;23.400;2023-04-05T04:19:55;95232.59;;;1.77;84.20
32197;BME280;18697;42.770;23.400;2023-04-05T04:22:22;95236.03;;;1.81;83.91
32197;BME280;18697;42.770;23.400;2023-04-05T04:24:51;95236.47;;;1.79;83.99
32197;BME280;18697;42.770;23.400;2023-04-05T04:27:20;95233.78;;;1.76;84.83
32197;BME280;18697;42.770;23.400;2023-04-05T04:29:46;95233.41;;;1.74;85.70
32197;BME280;18697;42.770;23.400;2023-04-05T04:32:14;95238.06;;;1.77;86.06
32197;BME280;18697;42.770;23.400;2023-04-05T04:34:40;95240.44;;;1.75;85.99
32197;BME280;18697;42.770;23.400;2023-04-05T04:37:15;95235.13;;;1.64;85.88
32197;BME280;18697;42.770;23.400;2023-04-05T04:39:44;95235.91;;;1.64;86.09
32197;BME280;18697;42.770;23.400;2023-04-05T04:42:10;95237.56;;;1.58;86.53
32197;BME280;18697;42.770;23.400;2023-04-05T04:44:36;95235.56;;;1.62;86.92
32197;BME280;18697;42.770;23.400;2023-04-05T04:47:01;95240.63;;;1.64;87.03
32197;BME280;18697;42.770;23.400;2023-04-05T04:49:27;95237.16;;;1.60;86.42
32197;BME280;18697;42.770;23.400;2023-04-05T04:51:52;95245.72;;;1.62;86.36
32197;BME280;18697;42.770;23.400;2023-04-05T04:54:17;95250.25;;;1.72;86.63
32197;BME280;18697;42.770;23.400;2023-04-05T04:56:45;95245.22;;;1.71;86.44
32197;BME280;18697;42.770;23.400;2023-04-05T04:59:10;95242.00;;;1.76;86.03
32197;BME280;18697;42.770;23.400;2023-04-05T05:01:35;95242.00;;;1.76;86.13
32197;BME280;18697;42.770;23.400;2023-04-05T05:04:02;95249.03;;;1.77;85.86
32197;BME280;18697;42.770;23.400;2023-04-05T05:06:28;95244.06;;;1.68;85.74
32197;BME280;18697;42.770;23.400;2023-04-05T05:08:54;95244.00;;;1.72;86.11
32197;BME280;18697;42.770;23.400;2023-04-05T05:11:20;95242.81;;;1.73;85.94
32197;BME280;18697;42.770;23.400;2023-04-05T05:13:45;95244.31;;;1.77;85.76
32197;BME280;18697;42.770;23.400;2023-04-05T05:16:11;95246.59;;;1.82;85.86
32197;BME280;18697;42.770;23.400;2023-04-05T05:18:37;95252.06;;;1.82;86.10
32197;BME280;18697;42.770;23.400;2023-04-05T05:21:04;95251.13;;;1.92;85.89
32197;BME280;18697;42.770;23.400;2023-04-05T05:23:29;95252.72;;;1.90;84.95
32197;BME280;18697;42.770;23.400;2023-04-05T05:25:58;95250.28;;;1.95;84.97
32197;BME280;18697;42.770;23.400;2023-04-05T05:28:25;95254.16;;;1.98;85.02
32197;BME280;18697;42.770;23.400;2023-04-05T05:30:51;95258.03;;;2.01;84.81
32197;BME280;18697;42.770;23.400;2023-04-05T05:33:16;95248.31;;;1.96;84.38
32197;BME280;18697;42.770;23.400;2023-04-05T05:35:42;95252.25;;;1.95;84.34
32197;BME280;18697;42.770;23.400;2023-04-05T05:38:08;95251.00;;;2.00;84.36
32197;BME280;18697;42.770;23.400;2023-04-05T05:40:33;95253.25;;;2.05;84.30
32197;BME280;18697;42.770;23.400;2023-04-05T05:42:59;95261.78;;;2.10;84.20
32197;BME280;18697;42.770;23.400;2023-04-05T05:45:24;95258.13;;;2.17;83.85
32197;BME280;18697;42.770;23.400;2023-04-05T05:47:55;95258.44;;;2.22;83.88
32197;BME280;18697;42.770;23.400;2023-04-05T05:50:21;95257.56;;;2.25;83.33
32197;BME280;18697;42.770;23.400;2023-04-05T05:52:46;95248.09;;;2.30;82.76
32197;BME280;18697;42.770;23.400;2023-04-05T05:55:12;95251.13;;;2.36;82.31
32197;BME280;18697;42.770;23.400;2023-04-05T05:57:37;95251.88;;;2.36;81.67
32197;BME280;18697;42.770;23.400;2023-04-05T06:00:03;95250.63;;;2.41;81.13
32197;BME280;18697;42.770;23.400;2023-04-05T06:02:33;95254.91;;;2.42;81.06
32197;BME280;18697;42.770;23.400;2023-04-05T06:04:58;95252.66;;;2.37;80.34
32197;BME280;18697;42.770;23.400;2023-04-05T06:07:24;95248.03;;;2.34;80.18
32197;BME280;18697;42.770;23.400;2023-04-05T06:09:49;95253.50;;;2.34;80.55
32197;BME280;18697;42.770;23.400;2023-04-05T06:12:15;95255.06;;;2.35;80.17
32197;BME280;18697;42.770;23.400;2023-04-05T06:14:40;95262.78;;;2.40;79.64
32197;BME280;18697;42.770;23.400;2023-04-05T06:17:06;95265.75;;;2.49;80.09
32197;BME280;18697;42.770;23.400;2023-04-05T06:19:31;95266.88;;;2.51;79.45
32197;BME280;18697;42.770;23.400;2023-04-05T06:21:56;95270.75;;;2.54;79.06
32197;BME280;18697;42.770;23.400;2023-04-05T06:24:24;95273.06;;;2.55;78.17
32197;BME280;18697;42.770;23.400;2023-04-05T06:26:50;95268.72;;;2.58;78.18
32197;BME280;18697;42.770;23.400;2023-04-05T06:29:16;95277.44;;;2.53;78.27
32197;BME280;18697;42.770;23.400;2023-04-05T06:31:41;95274.19;;;2.58;78.61
32197;BME280;18697;42.770;23.400;2023-04-05T06:34:07;95277.22;;;2.63;78.33
32197;BME280;18697;42.770;23.400;2023-04-05T06:36:33;95283.72;;;2.73;78.63
32197;BME280;18697;42.770;23.400;2023-04-05T06:38:59;95282.50;;;2.74;78.04
32197;BME280;18697;42.770;23.400;2023-04-05T06:41:24;95277.03;;;2.74;77.57
32197;BME280;18697;42.770;23.400;2023-04-05T06:43:51;95287.56;;;2.76;77.15
32197;BME280;18697;42.770;23.400;2023-04-05T06:46:16;95282.03;;;2.79;77.53
32197;BME280;18697;42.770;23.400;2023-04-05T06:48:42;95292.72;;;2.93;78.52
32197;BME280;18697;42.770;23.400;2023-04-05T06:51:08;95294.09;;;3.02;78.53
32197;BME280;18697;42.770;23.400;2023-04-05T06:53:33;95300.00;;;3.00;76.66
32197;BME280;18697;42.770;23.400;2023-04-05T06:55:59;95299.94;;;3.04;76.10
32197;BME280;18697;42.770;23.400;2023-04-05T06:58:25;95298.47;;;2.99;74.60
32197;BME280;18697;42.770;23.400;2023-04-05T07:00:51;95302.56;;;2.91;74.92
32197;BME280;18697;42.770;23.400;2023-04-05T07:03:17;95313.88;;;2.93;75.94
32197;BME280;18697;42.770;23.400;2023-04-05T07:05:53;95305.72;;;2.89;75.66
32197;BME280;18697;42.770;23.400;2023-04-05T07:08:19;95308.41;;;2.93;75.76
32197;BME280;18697;42.770;23.400;2023-04-05T07:10:46;95316.69;;;2.89;75.11
32197;BME280;18697;42.770;23.400;2023-04-05T07:13:11;95318.59;;;2.92;74.65
32197;BME280;18697;42.770;23.400;2023-04-05T07:15:37;95317.34;;;2.97;75.40
32197;BME280;18697;42.770;23.400;2023-04-05T07:18:02;95312.28;;;2.95;75.33
32197;BME280;18697;42.770;23.400;2023-04-05T07:20:27;95322.88;;;2.93;74.42
32197;BME280;18697;42.770;23.400;2023-04-05T07:22:53;95327.53;;;2.96;75.95
32197;BME280;18697;42.770;23.400;2023-04-05T07:25:18;95326.75;;;2.96;74.66
32197;BME280;18697;42.770;23.400;2023-04-05T07:27:44;95331.53;;;2.92;75.09
32197;BME280;18697;42.770;23.400;2023-04-05T07:30:09;95329.56;;;2.92;75.34
32197;BME280;18697;42.770;23.400;2023-04-05T07:32:35;95323.72;;;2.90;76.33
32197;BME280;18697;42.770;23.400;2023-04-05T07:35:00;95337.63;;;3.00;76.68
32197;BME280;18697;42.770;23.400;2023-04-05T07:37:26;95334.25;;;3.12;77.42
32197;BME280;18697;42.770;23.400;2023-04-05T07:39:51;95337.50;;;3.07;75.77
32197;BME280;18697;42.770;23.400;2023-04-05T07:42:17;95341.44;;;3.06;75.64
32197;BME280;18697;42.770;23.400;2023-04-05T07:44:45;95350.88;;;3.05;75.38
32197;BME280;18697;42.770;23.400;2023-04-05T07:47:11;95344.69;;;3.01;75.25
32197;BME280;18697;42.770;23.400;2023-04-05T07:49:36;95336.59;;;2.93;76.47
32197;BME280;18697;42.770;23.400;2023-04-05T07:52:02;95350.59;;;2.79;76.14
32197;BME280;18697;42.770;23.400;2023-04-05T07:54:29;95351.06;;;2.74;77.66
32197;BME280;18697;42.770;23.400;2023-04-05T07:56:55;95353.22;;;2.63;77.53
32197;BME280;18697;42.770;23.400;2023-04-05T07:59:22;95354.84;;;2.60;78.16
32197;BME280;18697;42.770;23.400;2023-04-05T08:01:47;95365.03;;;2.60;78.26
32197;BME280;18697;42.770;23.400;2023-04-05T08:04:13;95371.34;;;2.57;78.02
32197;BME280;18697;42.770;23.400;2023-04-05T08:06:38;95364.31;;;2.56;78.38
32197;BME280;18697;42.770;23.400;2023-04-05T08:09:04;95372.97;;;2.54;77.59
32197;BME280;18697;42.770;23.400;2023-04-05T08:11:31;95376.53;;;2.51;76.60
32197;BME280;18697;42.770;23.400;2023-04-05T08:13:57;95378.81;;;2.56;76.72
32197;BME280;18697;42.770;23.400;2023-04-05T08:16:22;95373.75;;;2.55;75.67
32197;BME280;18697;42.770;23.400;2023-04-05T08:18:48;95372.53;;;2.56;75.62
32197;BME280;18697;42.770;23.400;2023-04-05T08:21:13;95377.44;;;2.68;75.58
32197;BME280;18697;42.770;23.400;2023-04-05T08:23:38;95378.91;;;2.73;74.69
32197;BME280;18697;42.770;23.400;2023-04-05T08:26:04;95375.75;;;2.74;75.11
32197;BME280;18697;42.770;23.400;2023-04-05T08:28:35;95382.66;;;2.82;74.41
32197;BME280;18697;42.770;23.400;2023-04-05T08:31:01;95388.09;;;2.86;75.02
32197;BME280;18697;42.770;23.400;2023-04-05T08:33:26;95375.91;;;2.87;73.96
32197;BME280;18697;42.770;23.400;2023-04-05T08:35:55;95377.25;;;2.79;74.05
32197;BME280;18697;42.770;23.400;2023-04-05T08:38:21;95394.81;;;2.81;73.18
32197;BME280;18697;42.770;23.400;2023-04-05T08:40:47;95391.06;;;2.72;72.97
32197;BME280;18697;42.770;23.400;2023-04-05T08:43:22;95390.66;;;2.73;73.22
32197;BME280;18697;42.770;23.400;2023-04-05T08:45:49;95397.56;;;2.81;73.91
32197;BME280;18697;42.770;23.400;2023-04-05T08:48:16;95391.19;;;2.88;73.87
32197;BME280;18697;42.770;23.400;2023-04-05T08:50:41;95398.16;;;2.92;74.26
32197;BME280;18697;42.770;23.400;2023-04-05T08:53:07;95398.09;;;2.96;74.00
32197;BME280;18697;42.770;23.400;2023-04-05T08:55:38;95403.63;;;2.92;73.15
32197;BME280;18697;42.770;23.400;2023-04-05T08:58:11;95395.78;;;2.94;72.17
32197;BME280;18697;42.770;23.400;2023-04-05T09:00:38;95404.06;;;2.91;72.50
32197;BME280;18697;42.770;23.400;2023-04-05T09:03:04;95407.34;;;3.02;73.13
32197;BME280;18697;42.770;23.400;2023-04-05T09:05:31;95410.53;;;3.01;72.42
32197;BME280;18697;42.770;23.400;2023-04-05T09:07:58;95416.00;;;3.01;72.18
32197;BME280;18697;42.770;23.400;2023-04-05T09:10:24;95407.88;;;2.97;72.18
32197;BME280;18697;42.770;23.400;2023-04-05T09:12:51;95410.63;;;2.97;73.38
32197;BME280;18697;42.770;23.400;2023-04-05T09:15:17;95409.63;;;3.07;73.41
32197;BME280;18697;42.770;23.400;2023-04-05T09:17:46;95409.06;;;3.16;73.08
32197;BME280;18697;42.770;23.400;2023-04-05T09:20:12;95415.13;;;3.27;73.15
32197;BME280;18697;42.770;23.400;2023-04-05T09:22:45;95426.19;;;3.43;72.81
32197;BME280;18697;42.770;23.400;2023-04-05T09:27:56;95427.03;;;3.40;72.52
32197;BME280;18697;42.770;23.400;2023-04-05T09:30:23;95418.59;;;3.51;73.11
32197;BME280;18697;42.770;23.400;2023-04-05T09:32:52;95413.78;;;3.55;72.62
32197;BME280;18697;42.770;23.400;2023-04-05T09:35:24;95418.72;;;3.63;72.20
32197;BME280;18697;42.770;23.400;2023-04-05T09:37:51;95408.50;;;3.64;70.83
32197;BME280;18697;42.770;23.400;2023-04-05T09:40:17;95411.78;;;3.75;71.17
32197;BME280;18697;42.770;23.400;2023-04-05T09:42:43;95414.94;;;3.93;71.11
32197;BME280;18697;42.770;23.400;2023-04-05T09:45:16;95409.63;;;4.03;70.87
32197;BME280;18697;42.770;23.400;2023-04-05T09:47:53;95406.28;;;4.11;70.73
32197;BME280;18697;42.770;23.400;2023-04-05T09:50:20;95403.47;;;4.15;70.00
32197;BME280;18697;42.770;23.400;2023-04-05T09:52:45;95407.34;;;4.17;68.11
32197;BME280;18697;42.770;23.400;2023-04-05T09:55:11;95406.66;;;4.29;69.39
32197;BME280;18697;42.770;23.400;2023-04-05T09:57:38;95405.44;;;4.47;70.17
32197;BME280;18697;42.770;23.400;2023-04-05T10:00:06;95409.81;;;4.60;68.48
32197;BME280;18697;42.770;23.400;2023-04-05T10:02:40;95397.34;;;4.72;68.18
32197;BME280;18697;42.770;23.400;2023-04-05T10:05:07;95399.66;;;4.90;68.90
32197;BME280;18697;42.770;23.400;2023-04-05T10:07:38;95396.63;;;5.01;68.15
32197;BME280;18697;42.770;23.400;2023-04-05T10:10:04;95397.81;;;5.16;69.02
32197;BME280;18697;42.770;23.400;2023-04-05T10:12:31;95394.72;;;5.14;67.86
32197;BME280;18697;42.770;23.400;2023-04-05T10:14:57;95394.47;;;5.08;67.04
32197;BME280;18697;42.770;23.400;2023-04-05T10:20:15;95393.03;;;5.45;70.01
32197;BME280;18697;42.770;23.400;2023-04-05T10:28:05;95385.44;;;5.49;66.42
32197;BME280;18697;42.770;23.400;2023-04-05T10:30:39;95390.94;;;5.78;67.44
32197;BME280;18697;42.770;23.400;2023-04-05T10:33:10;95394.34;;;5.82;65.86
32197;BME280;18697;42.770;23.400;2023-04-05T10:38:22;95391.94;;;5.97;65.99
32197;BME280;18697;42.770;23.400;2023-04-05T10:40:53;95402.72;;;5.79;63.88
32197;BME280;18697;42.770;23.400;2023-04-05T10:43:22;95395.19;;;5.67;64.58
32197;BME280;18697;42.770;23.400;2023-04-05T10:45:53;95394.44;;;5.79;66.82
32197;BME280;18697;42.770;23.400;2023-04-05T10:48:36;95397.75;;;5.74;65.45
32197;BME280;18697;42.770;23.400;2023-04-05T10:51:05;95398.41;;;5.78;65.73
32197;BME280;18697;42.770;23.400;2023-04-05T10:53:30;95405.97;;;6.03;67.17
32197;BME280;18697;42.770;23.400;2023-04-05T10:56:00;95402.88;;;6.01;65.11
32197;BME280;18697;42.770;23.400;2023-04-05T10:58:25;95405.63;;;6.01;64.79
32197;BME280;18697;42.770;23.400;2023-04-05T11:00:53;95394.56;;;5.75;63.10
32197;BME280;18697;42.770;23.400;2023-04-05T11:03:40;95400.78;;;5.50;63.43
32197;BME280;18697;42.770;23.400;2023-04-05T11:08:59;95398.81;;;5.64;66.60
32197;BME280;18697;42.770;23.400;2023-04-05T11:11:25;95409.19;;;5.59;64.15
32197;BME280;18697;42.770;23.400;2023-04-05T11:13:53;95407.91;;;5.77;65.86
32197;BME280;18697;42.770;23.400;2023-04-05T11:16:20;95416.44;;;5.95;65.20
32197;BME280;18697;42.770;23.400;2023-04-05T11:18:50;95415.00;;;6.03;63.67
32197;BME280;18697;42.770;23.400;2023-04-05T11:21:21;95409.50;;;6.03;62.29
32197;BME280;18697;42.770;23.400;2023-04-05T11:29:09;95407.09;;;6.56;62.20
32197;BME280;18697;42.770;23.400;2023-04-05T11:31:35;95407.03;;;6.81;62.44
32197;BME280;18697;42.770;23.400;2023-04-05T11:34:04;95410.75;;;6.87;61.63
32197;BME280;18697;42.770;23.400;2023-04-05T11:36:43;95405.66;;;6.99;62.12
32197;BME280;18697;42.770;23.400;2023-04-05T11:44:21;95408.06;;;6.49;59.87
32197;BME280;18697;42.770;23.400;2023-04-05T11:46:48;95405.44;;;6.46;60.89
32197;BME280;18697;42.770;23.400;2023-04-05T11:49:14;95397.59;;;6.57;62.24
32197;BME280;18697;42.770;23.400;2023-04-05T11:51:40;95415.25;;;6.59;61.25
32197;BME280;18697;42.770;23.400;2023-04-05T11:54:13;95409.72;;;6.59;61.48
32197;BME280;18697;42.770;23.400;2023-04-05T11:56:38;95416.25;;;6.53;63.60
32197;BME280;18697;42.770;23.400;2023-04-05T11:59:04;95424.28;;;6.60;60.87
32197;BME280;18697;42.770;23.400;2023-04-05T12:01:31;95416.34;;;6.37;60.54
32197;BME280;18697;42.770;23.400;2023-04-05T12:03:56;95420.09;;;6.17;61.04
32197;BME280;18697;42.770;23.400;2023-04-05T12:06:23;95425.47;;;5.96;60.42
32197;BME280;18697;42.770;23.400;2023-04-05T12:08:49;95416.66;;;6.01;61.06
32197;BME280;18697;42.770;23.400;2023-04-05T12:11:16;95420.06;;;6.05;61.13
32197;BME280;18697;42.770;23.400;2023-04-05T12:13:47;95415.13;;;6.12;60.51
32197;BME280;18697;42.770;23.400;2023-04-05T12:16:13;95418.66;;;6.13;59.37
32197;BME280;18697;42.770;23.400;2023-04-05T12:18:38;95424.94;;;6.13;60.02
32197;BME280;18697;42.770;23.400;2023-04-05T12:21:06;95419.66;;;6.19;59.91
32197;BME280;18697;42.770;23.400;2023-04-05T12:23:32;95422.97;;;6.39;61.59
32197;BME280;18697;42.770;23.400;2023-04-05T12:25:58;95420.84;;;6.69;60.55
32197;BME280;18697;42.770;23.400;2023-04-05T12:28:24;95420.78;;;6.47;58.33
32197;BME280;18697;42.770;23.400;2023-04-05T12:33:15;95421.44;;;6.25;61.50
32197;BME280;18697;42.770;23.400;2023-04-05T12:35:50;95438.31;;;6.28;62.68
32197;BME280;18697;42.770;23.400;2023-04-05T12:38:15;95412.47;;;6.09;60.88
32197;BME280;18697;42.770;23.400;2023-04-05T12:40:42;95422.63;;;6.12;60.11
32197;BME280;18697;42.770;23.400;2023-04-05T12:43:08;95410.72;;;6.28;61.04
32197;BME280;18697;42.770;23.400;2023-04-05T12:45:34;95420.09;;;6.43;60.00
32197;BME280;18697;42.770;23.400;2023-04-05T12:48:11;95422.75;;;6.46;58.54
32197;BME280;18697;42.770;23.400;2023-04-05T12:50:44;95424.69;;;6.71;60.03
32197;BME280;18697;42.770;23.400;2023-04-05T12:53:18;95420.91;;;6.90;59.01
32197;BME280;18697;42.770;23.400;2023-04-05T12:55:51;95423.66;;;7.03;58.61
32197;BME280;18697;42.770;23.400;2023-04-05T12:58:18;95423.09;;;7.08;59.19
32197;BME280;18697;42.770;23.400;2023-04-05T13:00:45;95422.13;;;6.89;59.27
32197;BME280;18697;42.770;23.400;2023-04-05T13:03:15;95421.59;;;6.69;59.89
32197;BME280;18697;42.770;23.400;2023-04-05T13:05:42;95426.63;;;6.49;59.07
32197;BME280;18697;42.770;23.400;2023-04-05T13:08:07;95432.56;;;6.35;59.83
32197;BME280;18697;42.770;23.400;2023-04-05T13:10:33;95417.56;;;6.10;60.23
32197;BME280;18697;42.770;23.400;2023-04-05T13:12:58;95428.88;;;5.87;60.72
32197;BME280;18697;42.770;23.400;2023-04-05T13:15:23;95434.38;;;5.87;63.00
32197;BME280;18697;42.770;23.400;2023-04-05T13:17:49;95435.66;;;5.70;60.39
32197;BME280;18697;42.770;23.400;2023-04-05T13:20:16;95437.16;;;5.58;60.90
32197;BME280;18697;42.770;23.400;2023-04-05T13:22:42;95429.19;;;5.47;60.24
32197;BME280;18697;42.770;23.400;2023-04-05T13:25:08;95431.38;;;5.40;61.43
32197;BME280;18697;42.770;23.400;2023-04-05T13:27:34;95438.78;;;5.26;60.80
32197;BME280;18697;42.770;23.400;2023-04-05T13:29:59;95422.03;;;5.21;62.30
32197;BME280;18697;42.770;23.400;2023-04-05T13:32:25;95430.69;;;5.36;63.23